Time;durP1;ratioP1;P1;durP2;ratioP2;P2;SDS_P1;SDS_P2;PMS_P1;PMS_P2;Temp;Humidity;BMP_temperature;BMP_pressure;BME280_temperature;BME280_humidity;BME280_pressure;Samples;Min_cycle;Max_cycle;Signal;HPM_P1;HPM_P2
2024/01/20 00:00:51;;;;;;;4.43;1.95;;;;;;;-5.39;81.74;98943.75;5063084;28;20028;-57
2024/01/20 00:03:17;;;;;;;5.90;2.78;;;;;;;-5.37;81.08;98950.53;5061402;28;20576;-53
2024/01/20 00:05:43;;;;;;;7.07;1.98;;;;;;;-5.38;80.81;98953.03;5057192;28;20140;-53
2024/01/20 00:08:09;;;;;;;10.82;3.03;;;;;;;-5.37;80.21;98953.06;5061496;28;20086;-55
2024/01/20 00:10:35;;;;;;;8.82;3.67;;;;;;;-5.37;79.93;98947.16;5060313;28;20071;-57
2024/01/20 00:13:00;;;;;;;7.38;3.50;;;;;;;-5.36;80.37;98951.38;5065016;28;20885;-56
2024/01/20 00:15:27;;;;;;;12.43;4.05;;;;;;;-5.37;80.09;98939.53;5061445;28;20166;-55
2024/01/20 00:17:52;;;;;;;7.53;2.92;;;;;;;-5.29;80.13;98950.69;5063008;28;20098;-59
2024/01/20 00:20:18;;;;;;;10.23;4.03;;;;;;;-5.24;80.59;98949.06;5063852;28;20040;-56
2024/01/20 00:22:44;;;;;;;9.98;3.47;;;;;;;-5.15;80.96;98949.22;5059602;28;20052;-57
2024/01/20 00:25:10;;;;;;;6.35;3.13;;;;;;;-5.29;80.67;98920.28;5063481;28;20040;-55
2024/01/20 00:27:36;;;;;;;8.40;2.75;;;;;;;-5.09;80.13;98956.91;5061112;28;20514;-57
2024/01/20 00:30:03;;;;;;;8.55;3.63;;;;;;;-5.11;79.29;98956.03;5060457;28;20052;-56
2024/01/20 00:32:33;;;;;;;13.55;3.40;;;;;;;-5.11;79.02;98953.50;5045594;28;20135;-56
2024/01/20 00:35:00;;;;;;;11.75;3.15;;;;;;;-5.07;79.07;98957.78;5059573;28;20117;-55
2024/01/20 00:37:27;;;;;;;10.07;3.08;;;;;;;-5.15;78.73;98950.06;5061731;28;20538;-55
2024/01/20 00:39:53;;;;;;;8.95;3.67;;;;;;;-5.12;78.68;98950.09;5089320;28;20052;-55
2024/01/20 00:42:18;;;;;;;10.90;4.03;;;;;;;-5.14;78.39;98956.00;5063835;28;20162;-56
2024/01/20 00:44:45;;;;;;;10.20;3.05;;;;;;;-5.15;78.91;98969.47;5043974;28;20037;-57
2024/01/20 00:47:11;;;;;;;10.82;3.25;;;;;;;-5.19;78.47;98960.13;5064168;28;20527;-54
2024/01/20 00:49:36;;;;;;;8.93;3.13;;;;;;;-5.14;78.32;98969.50;5063977;28;20037;-57
2024/01/20 00:52:03;;;;;;;9.93;3.78;;;;;;;-5.13;78.63;98968.66;5059371;28;20048;-56
2024/01/20 00:54:28;;;;;;;9.50;2.90;;;;;;;-5.02;78.90;98968.84;5061942;28;20204;-58
2024/01/20 00:56:54;;;;;;;3.33;1.88;;;;;;;-4.98;78.98;98957.94;5047280;28;20053;-56
2024/01/20 00:59:20;;;;;;;8.30;2.88;;;;;;;-5.00;78.03;98956.19;5060138;28;20139;-56
2024/01/20 01:01:46;;;;;;;10.32;2.78;;;;;;;-5.01;78.49;98964.63;5072503;28;20044;-57
2024/01/20 01:04:12;;;;;;;8.77;3.05;;;;;;;-4.98;77.74;98970.59;5063923;28;20500;-59
2024/01/20 01:06:38;;;;;;;10.23;2.97;;;;;;;-4.98;77.99;98973.16;5059676;28;20059;-57
2024/01/20 01:09:04;;;;;;;7.13;2.30;;;;;;;-5.22;78.25;98917.84;5059779;28;20047;-56
2024/01/20 01:11:30;;;;;;;9.43;3.42;;;;;;;-4.96;78.21;98963.00;5063637;28;20420;-59
2024/01/20 01:13:56;;;;;;;10.75;3.65;;;;;;;-4.97;78.00;98962.16;5064273;28;20047;-58
2024/01/20 01:16:22;;;;;;;4.82;2.13;;;;;;;-5.19;78.21;98938.19;5061420;28;20041;-55
2024/01/20 01:18:48;;;;;;;5.38;2.00;;;;;;;-4.93;78.44;98960.53;5061696;28;20817;-56
2024/01/20 01:21:14;;;;;;;10.18;3.10;;;;;;;-4.93;77.40;98965.59;5058318;28;20083;-54
2024/01/20 01:23:40;;;;;;;4.65;2.55;;;;;;;-4.96;77.39;98974.00;5079663;28;20047;-56
2024/01/20 01:26:06;;;;;;;6.90;2.70;;;;;;;-5.05;77.34;98975.53;5063894;28;20036;-55
2024/01/20 01:28:32;;;;;;;12.27;3.83;;;;;;;-5.06;76.87;98981.44;5064984;28;20064;-51
2024/01/20 01:30:58;;;;;;;8.60;2.40;;;;;;;-5.06;76.72;98986.50;5063765;28;20041;-53
2024/01/20 01:33:24;;;;;;;5.97;2.70;;;;;;;-5.09;76.73;98986.47;5063070;28;20047;-58
2024/01/20 01:35:49;;;;;;;10.50;3.13;;;;;;;-5.09;77.35;98984.78;5058706;28;20044;-56
2024/01/20 01:38:15;;;;;;;6.65;2.50;;;;;;;-5.07;77.41;98979.72;5064280;28;20036;-55
2024/01/20 01:40:41;;;;;;;6.43;2.20;;;;;;;-5.07;77.45;98972.13;5059677;28;20078;-56
2024/01/20 01:43:08;;;;;;;9.45;3.38;;;;;;;-5.03;77.20;98977.28;5045683;28;20101;-55
2024/01/20 01:45:34;;;;;;;8.48;2.80;;;;;;;-5.03;76.72;98979.81;5074806;28;20083;-57
2024/01/20 01:47:59;;;;;;;13.93;3.40;;;;;;;-5.09;77.13;98972.13;5044934;28;20160;-56
2024/01/20 01:50:27;;;;;;;10.02;3.45;;;;;;;-5.59;77.11;98892.75;5055880;28;20051;-56
2024/01/20 01:52:56;;;;;;;9.43;3.22;;;;;;;-5.18;77.28;98979.56;5041585;28;20079;-55
2024/01/20 01:55:23;;;;;;;5.13;2.13;;;;;;;-5.20;76.73;98986.28;5057828;28;20541;-54
2024/01/20 01:57:53;;;;;;;16.65;3.53;;;;;;;-5.20;76.93;98971.94;5063751;28;20037;-57
2024/01/20 02:00:19;;;;;;;10.32;3.40;;;;;;;-5.16;77.49;98981.28;5062519;28;20039;-56
2024/01/20 02:02:45;;;;;;;7.30;3.40;;;;;;;-5.15;77.20;98990.59;5061519;28;21083;-51
2024/01/20 02:05:11;;;;;;;6.18;2.45;;;;;;;-5.54;77.03;98934.19;5060774;28;20044;-57
2024/01/20 02:07:39;;;;;;;9.35;4.13;;;;;;;-5.48;77.34;98936.84;5064314;28;20052;-57
2024/01/20 02:10:06;;;;;;;9.13;3.58;;;;;;;-5.22;77.12;98985.41;5056731;28;20076;-59
2024/01/20 02:12:34;;;;;;;7.75;2.83;;;;;;;-5.22;77.33;98985.41;5061441;28;20904;-58
2024/01/20 02:15:01;;;;;;;10.18;3.97;;;;;;;-5.45;77.07;98956.31;5060360;28;20578;-57
2024/01/20 02:17:33;;;;;;;8.38;3.20;;;;;;;-5.24;76.92;98985.38;5061751;28;20101;-58
2024/01/20 02:19:59;;;;;;;11.75;3.85;;;;;;;-5.22;77.55;98982.88;5045579;28;20503;-58
2024/01/20 02:22:24;;;;;;;13.20;3.38;;;;;;;-5.38;77.68;98953.88;5062249;28;20064;-57
2024/01/20 02:24:50;;;;;;;7.85;3.22;;;;;;;-5.20;77.10;98977.00;5062492;28;20531;-58
2024/01/20 02:27:17;;;;;;;7.32;3.17;;;;;;;-5.13;77.21;98985.56;5062796;28;20082;-56
2024/01/20 02:29:43;;;;;;;10.35;3.90;;;;;;;-5.13;77.64;98977.97;5046017;28;20966;-55
2024/01/20 02:32:09;;;;;;;8.52;2.88;;;;;;;-5.10;77.12;98983.06;5060267;28;20037;-54
2024/01/20 02:34:37;;;;;;;16.52;4.28;;;;;;;-5.13;77.18;98986.41;5088444;28;20504;-54
2024/01/20 02:37:04;;;;;;;7.40;3.55;;;;;;;-5.13;77.13;98983.03;5062987;28;20036;-55
2024/01/20 02:39:31;;;;;;;11.45;4.15;;;;;;;-5.03;77.91;98979.81;5061388;28;20436;-55
2024/01/20 02:41:56;;;;;;;8.38;3.67;;;;;;;-4.91;77.54;98979.13;5062774;28;20127;-58
2024/01/20 02:44:22;;;;;;;13.27;3.67;;;;;;;-5.06;77.97;98926.53;5043936;28;20055;-55
2024/01/20 02:46:48;;;;;;;9.57;3.88;;;;;;;-4.64;77.92;98976.16;5060721;28;20041;-56
2024/01/20 02:49:14;;;;;;;10.00;4.10;;;;;;;-4.56;77.28;98984.75;5059820;28;20048;-59
2024/01/20 02:51:40;;;;;;;11.82;3.25;;;;;;;-4.55;77.35;98979.69;5058494;28;20106;-57
2024/01/20 02:54:06;;;;;;;7.07;3.20;;;;;;;-4.81;77.09;98935.34;5057484;28;20504;-57
2024/01/20 02:56:32;;;;;;;10.95;4.07;;;;;;;-4.60;76.59;98978.75;5055098;28;20036;-57
2024/01/20 02:58:57;;;;;;;10.02;3.50;;;;;;;-4.59;76.33;98989.75;5061508;28;20481;-56
2024/01/20 03:01:23;;;;;;;11.57;3.90;;;;;;;-4.67;76.11;98981.22;5061702;28;20040;-59
2024/01/20 03:03:49;;;;;;;9.82;3.97;;;;;;;-4.67;76.52;98998.97;5060903;28;20657;-55
2024/01/20 03:06:16;;;;;;;10.65;4.25;;;;;;;-4.70;76.02;98999.75;5060469;28;20039;-58
2024/01/20 03:08:42;;;;;;;13.95;4.18;;;;;;;-4.67;76.39;99001.50;5066011;28;20074;-57
2024/01/20 03:11:08;;;;;;;16.08;5.00;;;;;;;-4.83;76.27;98972.53;5065630;28;20044;-59
2024/01/20 03:13:33;;;;;;;11.73;4.38;;;;;;;-4.78;76.29;98955.69;5064371;28;20048;-56
2024/01/20 03:15:59;;;;;;;11.13;4.00;;;;;;;-4.56;76.21;99015.19;5061300;28;20043;-55
2024/01/20 03:18:25;;;;;;;5.93;2.92;;;;;;;-4.61;76.50;99019.34;5065341;28;20032;-53
2024/01/20 03:20:51;;;;;;;12.38;4.05;;;;;;;-4.68;76.37;99015.84;5060983;28;20040;-57
2024/01/20 03:23:17;;;;;;;12.18;4.20;;;;;;;-4.92;76.34;98990.94;5048686;28;20043;-55
2024/01/20 03:25:43;;;;;;;8.68;3.95;;;;;;;-4.73;76.14;99015.78;5064736;28;20122;-57
2024/01/20 03:28:09;;;;;;;10.55;4.30;;;;;;;-4.94;76.41;98982.50;5064524;28;20467;-56
2024/01/20 03:30:35;;;;;;;14.07;4.95;;;;;;;-4.73;76.21;99017.47;5062286;28;20128;-55
2024/01/20 03:33:01;;;;;;;15.57;4.68;;;;;;;-4.68;76.23;99025.13;5066162;28;20694;-59
2024/01/20 03:35:27;;;;;;;13.13;5.25;;;;;;;-4.66;76.72;99019.28;5062876;28;20051;-57
2024/01/20 03:37:52;;;;;;;10.63;4.05;;;;;;;-4.65;76.50;99026.03;5088653;28;20487;-57
2024/01/20 03:40:18;;;;;;;10.65;4.50;;;;;;;-4.74;76.45;99021.69;5065613;28;20041;-59
2024/01/20 03:42:44;;;;;;;11.52;4.60;;;;;;;-4.81;76.71;99022.41;5064586;28;20135;-56
2024/01/20 03:45:10;;;;;;;8.75;3.50;;;;;;;-4.87;76.73;99018.94;5061042;28;20119;-55
2024/01/20 03:47:36;;;;;;;13.73;4.53;;;;;;;-4.90;76.60;99031.53;5062630;28;20048;-57
2024/01/20 03:50:04;;;;;;;14.95;4.47;;;;;;;-5.01;76.40;99000.94;5065123;28;20040;-58
2024/01/20 03:52:30;;;;;;;12.07;4.43;;;;;;;-4.76;77.19;99027.53;5081031;28;20508;-57
2024/01/20 03:54:56;;;;;;;15.13;4.68;;;;;;;-4.64;76.46;99025.19;5064967;28;20064;-55
2024/01/20 03:57:23;;;;;;;10.23;3.80;;;;;;;-4.50;77.06;99025.44;5046739;28;20109;-58
2024/01/20 03:59:49;;;;;;;11.18;4.15;;;;;;;-4.41;77.01;99028.94;5062869;28;20040;-58
2024/01/20 04:02:15;;;;;;;9.05;3.38;;;;;;;-4.49;76.67;99019.50;5062929;28;20369;-57
2024/01/20 04:04:41;;;;;;;16.40;4.60;;;;;;;-4.69;76.25;99014.13;5062992;28;20068;-56
2024/01/20 04:07:06;;;;;;;10.60;4.50;;;;;;;-4.56;76.32;99035.47;5060006;28;20067;-55
2024/01/20 04:09:32;;;;;;;9.70;3.33;;;;;;;-4.56;76.11;99012.66;5063462;28;20063;-54
2024/01/20 04:11:58;;;;;;;13.25;4.68;;;;;;;-4.46;76.55;99032.25;5051050;28;20831;-56
2024/01/20 04:14:24;;;;;;;12.80;5.13;;;;;;;-4.42;76.22;99034.84;5064784;28;20047;-54
2024/01/20 04:16:50;;;;;;;12.45;4.47;;;;;;;-4.42;76.31;99041.59;5062988;28;20059;-55
2024/01/20 04:19:16;;;;;;;15.80;4.65;;;;;;;-4.45;76.32;99036.50;5063571;28;20462;-52
2024/01/20 04:21:43;;;;;;;13.20;4.78;;;;;;;-4.45;76.44;99056.78;5060325;28;20037;-54
2024/01/20 04:24:09;;;;;;;18.13;5.30;;;;;;;-4.32;76.29;99044.28;5058770;28;20053;-59
2024/01/20 04:26:35;;;;;;;12.60;3.97;;;;;;;-4.60;76.36;98983.84;5014876;28;20051;-54
2024/01/20 04:29:01;;;;;;;16.65;4.90;;;;;;;-4.25;76.07;99044.38;5076194;28;20044;-57
2024/01/20 04:31:27;;;;;;;14.88;5.30;;;;;;;-4.32;76.15;99048.50;5064396;28;20585;-55
2024/01/20 04:33:53;;;;;;;17.02;5.18;;;;;;;-4.35;76.08;99049.34;5046672;28;20075;-58
2024/01/20 04:36:19;;;;;;;13.30;4.55;;;;;;;-4.34;75.82;99045.09;5044588;28;20049;-58
2024/01/20 04:38:45;;;;;;;12.57;4.85;;;;;;;-4.27;76.56;99044.34;5060631;28;20064;-57
2024/01/20 04:41:11;;;;;;;13.85;5.05;;;;;;;-4.21;76.37;99049.53;5064723;28;20081;-57
2024/01/20 04:43:37;;;;;;;15.02;5.15;;;;;;;-4.13;76.31;99047.91;5065630;28;20079;-56
2024/01/20 04:46:03;;;;;;;15.55;5.70;;;;;;;-4.06;76.67;99062.41;5060129;28;20041;-59
2024/01/20 04:48:30;;;;;;;12.18;4.68;;;;;;;-4.26;76.27;99025.75;5064029;28;20049;-55
2024/01/20 04:50:57;;;;;;;15.48;4.78;;;;;;;-4.06;76.07;99052.25;5063292;28;20040;-57
2024/01/20 04:53:23;;;;;;;13.38;4.88;;;;;;;-3.89;76.31;99063.50;5060637;28;21730;-58
2024/01/20 04:55:49;;;;;;;12.25;4.30;;;;;;;-3.74;75.97;99067.91;5062885;28;20036;-56
2024/01/20 04:58:15;;;;;;;13.25;5.28;;;;;;;-3.64;75.72;99069.72;5046743;28;20512;-56
2024/01/20 05:00:41;;;;;;;13.23;4.32;;;;;;;-3.58;75.26;99068.94;5062090;28;20572;-57
2024/01/20 05:03:07;;;;;;;13.07;5.45;;;;;;;-3.57;75.50;99075.75;5062186;28;20129;-59
2024/01/20 05:05:33;;;;;;;12.95;4.70;;;;;;;-3.48;75.65;99066.53;5062811;28;20075;-57
2024/01/20 05:07:59;;;;;;;10.15;4.60;;;;;;;-3.65;75.37;99023.97;5059993;28;20076;-57
2024/01/20 05:10:25;;;;;;;12.68;5.20;;;;;;;-3.72;74.92;99020.53;5062716;28;20059;-56
2024/01/20 05:12:51;;;;;;;14.13;4.82;;;;;;;-3.44;74.86;99068.28;5058055;28;20048;-53
2024/01/20 05:15:16;;;;;;;14.68;5.30;;;;;;;-3.37;75.09;99076.81;5058308;28;20052;-56
2024/01/20 05:17:43;;;;;;;13.32;5.60;;;;;;;-3.40;75.00;99073.41;5061270;28;20089;-57
2024/01/20 05:20:12;;;;;;;16.00;6.18;;;;;;;-3.36;74.62;99073.44;5057690;28;20090;-58
2024/01/20 05:22:38;;;;;;;15.57;5.60;;;;;;;-3.34;74.56;99071.75;5062234;28;20045;-57
2024/01/20 05:25:05;;;;;;;12.80;5.20;;;;;;;-3.22;74.59;99081.22;5063516;28;20047;-60
2024/01/20 05:27:31;;;;;;;14.20;5.00;;;;;;;-3.14;74.79;99085.53;5062381;28;20036;-59
2024/01/20 05:29:56;;;;;;;11.32;5.30;;;;;;;-3.12;74.39;99091.50;5064164;28;20040;-60
2024/01/20 05:32:22;;;;;;;17.10;5.55;;;;;;;-3.11;74.41;99090.66;5062267;28;20604;-60
2024/01/20 05:34:48;;;;;;;13.32;5.30;;;;;;;-3.34;74.26;99050.56;5057242;28;20086;-61
2024/01/20 05:37:15;;;;;;;15.85;4.95;;;;;;;-3.08;74.33;99088.13;5062392;28;20531;-59
2024/01/20 05:39:41;;;;;;;18.23;5.32;;;;;;;-3.08;74.06;99097.44;5063363;28;20040;-58
2024/01/20 05:42:07;;;;;;;12.57;3.67;;;;;;;-3.12;73.97;99095.72;5060085;28;20039;-59
2024/01/20 05:44:33;;;;;;;14.73;5.05;;;;;;;-3.30;73.76;99088.78;5062191;28;20579;-59
2024/01/20 05:46:59;;;;;;;11.07;4.38;;;;;;;-3.23;73.77;99089.66;5043285;28;20048;-59
2024/01/20 05:49:25;;;;;;;13.30;5.65;;;;;;;-3.17;73.77;99098.22;5061303;28;20040;-54
2024/01/20 05:51:51;;;;;;;16.10;5.28;;;;;;;-3.64;73.82;99018.06;5044954;28;20082;-61
2024/01/20 05:54:17;;;;;;;14.15;5.45;;;;;;;-3.21;73.70;99103.25;5062880;28;20051;-58
2024/01/20 05:56:43;;;;;;;12.98;5.78;;;;;;;-3.19;74.00;99101.59;5062631;28;20490;-57
2024/01/20 05:59:09;;;;;;;14.90;5.35;;;;;;;-3.42;73.73;99069.16;5059906;28;20060;-55
2024/01/20 06:01:35;;;;;;;16.23;5.95;;;;;;;-3.37;73.81;99068.34;5060802;28;20059;-56
2024/01/20 06:04:01;;;;;;;14.20;6.00;;;;;;;-3.15;73.94;99095.69;5033844;28;20499;-57
2024/01/20 06:06:26;;;;;;;12.65;5.25;;;;;;;-3.20;73.39;99100.75;5060335;28;20422;-60
2024/01/20 06:08:52;;;;;;;15.55;5.35;;;;;;;-3.20;73.56;99104.97;5056670;28;20048;-57
2024/01/20 06:11:18;;;;;;;13.68;5.05;;;;;;;-3.27;73.23;99109.13;5078394;28;20044;-57
2024/01/20 06:13:44;;;;;;;11.52;5.30;;;;;;;-3.62;73.35;99085.84;5063453;28;20052;-52
2024/01/20 06:16:11;;;;;;;18.67;6.88;;;;;;;-3.64;72.90;99104.44;5040373;28;20423;-55
2024/01/20 06:18:37;;;;;;;16.23;5.13;;;;;;;-3.86;73.23;99105.81;5062275;28;20051;-61
2024/01/20 06:21:03;;;;;;;14.50;5.40;;;;;;;-4.04;73.15;99113.22;5062003;28;20037;-59
2024/01/20 06:23:29;;;;;;;17.20;6.43;;;;;;;-4.14;72.85;99116.44;5056289;28;20048;-55
2024/01/20 06:25:55;;;;;;;15.98;6.05;;;;;;;-4.06;72.90;99112.31;5065202;28;20105;-61
2024/01/20 06:28:21;;;;;;;20.38;5.38;;;;;;;-4.25;72.33;99107.81;5072028;28;20044;-60
2024/01/20 06:30:49;;;;;;;16.35;5.10;;;;;;;-4.20;72.93;99116.34;5066505;28;20500;-56
2024/01/20 06:33:16;;;;;;;17.70;5.63;;;;;;;-4.35;73.06;99094.16;5061767;28;20162;-62
2024/01/20 06:35:42;;;;;;;17.00;5.15;;;;;;;-4.41;73.10;99117.72;5063481;28;20036;-61
2024/01/20 06:38:08;;;;;;;13.73;4.90;;;;;;;-4.36;73.43;99122.88;5068043;28;20052;-60
2024/01/20 06:40:34;;;;;;;16.15;4.88;;;;;;;-4.27;73.36;99128.06;5071779;28;20089;-60
2024/01/20 06:43:00;;;;;;;20.20;6.53;;;;;;;-4.16;73.36;99131.63;5063894;28;20051;-59
2024/01/20 06:45:30;;;;;;;12.43;4.85;;;;;;;-4.04;72.82;99130.97;5088336;28;20055;-58
2024/01/20 06:47:56;;;;;;;11.07;5.18;;;;;;;-4.24;72.76;99130.69;5065715;28;20051;-55
2024/01/20 06:50:22;;;;;;;14.70;5.35;;;;;;;-4.15;72.72;99138.44;5061829;28;20036;-59
2024/01/20 06:52:48;;;;;;;15.45;5.45;;;;;;;-4.23;72.74;99134.91;5065744;28;20032;-54
2024/01/20 06:55:14;;;;;;;14.93;5.80;;;;;;;-4.32;72.42;99140.69;5068973;28;20730;-56
2024/01/20 06:57:39;;;;;;;14.95;5.88;;;;;;;-4.40;72.19;99142.28;5065026;28;20048;-56
2024/01/20 07:00:08;;;;;;;16.20;5.82;;;;;;;-4.54;71.85;99135.25;5070721;28;20090;-56
2024/01/20 07:02:34;;;;;;;13.73;5.50;;;;;;;-4.51;72.69;99135.31;5064682;28;20048;-58
2024/01/20 07:05:00;;;;;;;15.57;5.80;;;;;;;-4.50;72.64;99137.84;5072175;28;20520;-54
2024/01/20 07:07:26;;;;;;;16.70;4.85;;;;;;;-4.55;72.17;99143.72;5064774;28;20051;-56
2024/01/20 07:09:52;;;;;;;14.82;5.25;;;;;;;-4.77;72.96;99109.53;5065372;28;20054;-57
2024/01/20 07:12:21;;;;;;;8.45;3.63;;;;;;;-4.58;72.52;99139.41;5061758;28;20409;-58
2024/01/20 07:14:48;;;;;;;14.05;5.20;;;;;;;-4.68;72.40;99155.31;5065444;28;20058;-57
2024/01/20 07:17:14;;;;;;;19.90;5.57;;;;;;;-4.71;73.07;99145.94;5062520;28;20036;-58
2024/01/20 07:19:40;;;;;;;12.13;4.40;;;;;;;-4.68;72.66;99154.44;5045386;28;20095;-57
2024/01/20 07:22:06;;;;;;;17.95;6.25;;;;;;;-4.68;72.76;99160.38;5058809;28;20049;-59
2024/01/20 07:24:32;;;;;;;15.85;5.78;;;;;;;-4.57;72.70;99166.50;5078143;28;20040;-59
2024/01/20 07:26:58;;;;;;;17.38;6.43;;;;;;;-4.57;72.79;99165.63;5065886;28;20044;-57
2024/01/20 07:29:24;;;;;;;12.30;5.50;;;;;;;-4.37;72.75;99157.53;5065532;28;20041;-60
2024/01/20 07:31:53;;;;;;;17.50;6.10;;;;;;;-4.13;72.59;99159.59;5064825;28;20821;-59
2024/01/20 07:34:19;;;;;;;14.23;5.07;;;;;;;-4.39;71.65;99130.41;5062827;28;20052;-56
2024/01/20 07:36:45;;;;;;;17.52;5.75;;;;;;;-4.20;72.07;99175.56;5066643;28;20038;-56
2024/01/20 07:39:11;;;;;;;16.23;5.90;;;;;;;-4.32;71.87;99135.63;5064462;28;20458;-60
2024/01/20 07:41:38;;;;;;;14.90;5.05;;;;;;;-4.08;71.28;99177.44;5065708;28;20046;-62
2024/01/20 07:44:04;;;;;;;18.27;6.50;;;;;;;-3.99;71.89;99175.06;5065737;28;20427;-59
2024/01/20 07:46:29;;;;;;;14.40;5.57;;;;;;;-3.78;71.51;99179.59;5062376;28;20591;-57
2024/01/20 07:48:55;;;;;;;11.68;4.38;;;;;;;-3.63;71.30;99180.66;5046781;28;20127;-57
2024/01/20 07:51:21;;;;;;;22.30;5.82;;;;;;;-3.70;71.40;99173.78;5061676;28;20044;-59
2024/01/20 07:53:47;;;;;;;20.13;5.78;;;;;;;-3.67;70.74;99168.75;5066261;28;20051;-61
2024/01/20 07:56:15;;;;;;;19.52;7.03;;;;;;;-3.57;70.64;99141.78;5061888;28;20492;-56
2024/01/20 07:58:41;;;;;;;16.33;6.15;;;;;;;-3.23;70.45;99174.41;5055049;28;20044;-57
2024/01/20 08:01:07;;;;;;;16.25;5.60;;;;;;;-3.13;70.36;99170.28;5065102;28;20499;-57
2024/01/20 08:03:33;;;;;;;18.67;6.18;;;;;;;-3.10;69.92;99170.31;5080684;28;20484;-60
2024/01/20 08:06:00;;;;;;;19.45;6.55;;;;;;;-3.05;69.45;99174.63;5064686;28;20036;-59
2024/01/20 08:08:26;;;;;;;14.38;6.95;;;;;;;-2.94;69.62;99187.47;5063130;28;20122;-56
2024/01/20 08:10:52;;;;;;;14.45;6.57;;;;;;;-2.86;69.31;99175.69;5046582;28;20109;-58
2024/01/20 08:13:20;;;;;;;19.02;6.78;;;;;;;-2.92;68.56;99180.69;5093823;28;20138;-62
2024/01/20 08:15:46;;;;;;;22.75;7.00;;;;;;;-3.03;68.98;99146.66;5060513;28;20048;-62
2024/01/20 08:18:12;;;;;;;17.55;5.32;;;;;;;-2.64;68.72;99182.69;5066494;28;20633;-63
2024/01/20 08:20:38;;;;;;;16.05;5.72;;;;;;;-2.79;68.34;99143.53;5065399;28;20549;-60
2024/01/20 08:23:04;;;;;;;20.15;6.28;;;;;;;-2.48;68.11;99185.38;5062507;28;20064;-61
2024/01/20 08:25:30;;;;;;;16.67;6.00;;;;;;;-2.71;68.00;99149.53;5065378;28;20067;-62
2024/01/20 08:27:55;;;;;;;20.00;6.50;;;;;;;-2.64;67.61;99180.16;5065790;28;20093;-63
2024/01/20 08:30:22;;;;;;;17.45;6.70;;;;;;;-2.63;67.54;99196.28;5047655;28;20068;-59
2024/01/20 08:32:48;;;;;;;13.02;5.65;;;;;;;-2.56;67.82;99178.53;5094376;28;20128;-57
2024/01/20 08:35:14;;;;;;;16.55;6.30;;;;;;;-2.43;67.84;99189.69;5064086;28;20598;-59
2024/01/20 08:37:39;;;;;;;18.13;6.47;;;;;;;-2.34;67.65;99188.91;5062611;28;20519;-52
2024/01/20 08:40:06;;;;;;;16.13;6.22;;;;;;;-2.49;67.16;99140.41;5063271;28;20064;-58
2024/01/20 08:42:32;;;;;;;17.70;6.78;;;;;;;-2.15;67.06;99191.63;5054565;28;20032;-56
2024/01/20 08:44:59;;;;;;;10.95;5.68;;;;;;;-2.05;66.79;99190.03;5063581;28;20093;-52
2024/01/20 08:47:25;;;;;;;16.80;6.47;;;;;;;-2.10;66.47;99186.59;5063969;28;20036;-53
2024/01/20 08:49:51;;;;;;;16.63;6.90;;;;;;;-2.00;66.79;99196.00;5061620;28;20081;-54
2024/01/20 08:52:18;;;;;;;18.05;7.68;;;;;;;-1.83;66.58;99189.31;5061997;28;20382;-50
2024/01/20 08:54:44;;;;;;;16.75;5.80;;;;;;;-1.68;66.17;99180.94;5061814;28;20041;-54
2024/01/20 08:57:11;;;;;;;16.25;6.15;;;;;;;-1.53;65.97;99192.94;5063861;28;20043;-54
2024/01/20 08:59:37;;;;;;;16.35;5.90;;;;;;;-1.52;65.61;99164.06;5059332;28;20067;-54
2024/01/20 09:02:03;;;;;;;19.85;7.18;;;;;;;-1.39;65.35;99155.59;5063545;28;20064;-59
2024/01/20 09:04:29;;;;;;;15.60;6.43;;;;;;;-1.08;64.65;99193.16;5071270;28;20040;-56
2024/01/20 09:06:55;;;;;;;16.67;5.68;;;;;;;-1.11;64.38;99198.25;5045304;28;20557;-57
2024/01/20 09:09:21;;;;;;;15.48;6.35;;;;;;;-1.43;64.41;99164.94;5062861;28;20384;-57
2024/01/20 09:11:50;;;;;;;15.85;6.68;;;;;;;-1.26;64.67;99190.53;5063224;28;20516;-58
2024/01/20 09:14:16;;;;;;;20.63;7.18;;;;;;;-1.35;64.91;99195.56;5063859;28;20124;-54
2024/01/20 09:16:41;;;;;;;14.45;6.18;;;;;;;-1.34;64.38;99195.59;5045594;28;20139;-53
2024/01/20 09:19:09;;;;;;;17.13;7.00;;;;;;;-1.66;64.49;99168.19;5046895;28;20044;-60
2024/01/20 09:21:35;;;;;;;19.35;6.80;;;;;;;-1.64;65.20;99203.06;5057058;28;20033;-58
2024/01/20 09:24:01;;;;;;;17.15;6.63;;;;;;;-1.57;64.92;99202.22;5090727;28;20036;-53
2024/01/20 09:26:27;;;;;;;13.07;6.10;;;;;;;-1.58;65.06;99203.09;5064750;28;20044;-54
2024/01/20 09:28:52;;;;;;;20.88;6.88;;;;;;;-1.66;64.88;99211.53;5063075;28;20170;-54
2024/01/20 09:31:18;;;;;;;14.45;6.32;;;;;;;-1.66;65.28;99199.63;5061885;28;20045;-56
2024/01/20 09:33:45;;;;;;;16.60;6.32;;;;;;;-1.53;65.45;99198.03;5062495;28;20049;-55
2024/01/20 09:36:11;;;;;;;16.60;6.20;;;;;;;-1.51;65.14;99209.91;5093955;28;20040;-55
2024/01/20 09:38:37;;;;;;;15.35;6.57;;;;;;;-1.54;65.35;99206.50;5058291;28;20530;-56
2024/01/20 09:41:09;;;;;;;14.05;6.05;;;;;;;-1.45;65.26;99209.09;5077020;28;20055;-55
2024/01/20 09:43:38;;;;;;;16.30;6.25;;;;;;;-1.34;65.24;99208.34;5062803;28;20040;-57
2024/01/20 09:46:04;;;;;;;19.25;6.28;;;;;;;-1.45;64.97;99181.91;5064066;28;20048;-53
2024/01/20 09:48:30;;;;;;;14.20;6.43;;;;;;;-1.22;65.05;99212.66;5061248;28;20036;-56
2024/01/20 09:50:57;;;;;;;12.40;5.07;;;;;;;-1.15;65.17;99216.91;5061309;28;20051;-64
2024/01/20 09:53:24;;;;;;;15.38;5.50;;;;;;;-1.10;64.79;99214.41;5055882;28;20067;-58
2024/01/20 09:55:50;;;;;;;15.35;6.00;;;;;;;-1.11;64.81;99211.00;5063588;28;20067;-55
2024/01/20 09:58:17;;;;;;;13.88;6.00;;;;;;;-1.03;64.91;99219.53;5058208;28;20040;-57
2024/01/20 10:00:43;;;;;;;15.45;6.07;;;;;;;-1.25;64.98;99174.38;5062142;28;20083;-55
2024/01/20 10:03:11;;;;;;;14.70;6.10;;;;;;;-1.01;65.12;99224.66;5043308;28;20099;-58
2024/01/20 10:05:38;;;;;;;20.35;6.65;;;;;;;-1.06;64.94;99228.88;5062232;28;20520;-58
2024/01/20 10:08:05;;;;;;;19.42;6.47;;;;;;;-1.22;64.86;99202.44;5061560;28;20094;-60
2024/01/20 10:10:32;;;;;;;14.32;5.80;;;;;;;-1.09;65.06;99214.41;5063012;28;20992;-61
2024/01/20 10:13:00;;;;;;;16.60;6.85;;;;;;;-1.27;64.78;99178.63;5063661;28;20074;-58
2024/01/20 10:15:29;;;;;;;14.70;6.20;;;;;;;-1.24;65.29;99195.63;5062166;28;20039;-57
2024/01/20 10:17:55;;;;;;;15.25;5.55;;;;;;;-1.08;64.82;99228.84;5045637;28;20921;-58
2024/01/20 10:20:22;;;;;;;13.45;5.55;;;;;;;-1.36;64.98;99191.34;5056633;28;20048;-56
2024/01/20 10:22:49;;;;;;;19.73;5.88;;;;;;;-1.07;64.97;99227.16;5059077;28;20032;-53
2024/01/20 10:25:19;;;;;;;17.00;6.55;;;;;;;-1.07;64.97;99224.63;5060720;28;20437;-54
2024/01/20 10:27:47;;;;;;;13.73;6.25;;;;;;;-1.08;65.10;99226.31;5054421;28;20512;-56
2024/01/20 10:30:18;;;;;;;13.57;5.45;;;;;;;-1.14;65.32;99231.38;5045980;28;20653;-56
2024/01/20 10:32:46;;;;;;;20.02;6.28;;;;;;;-1.10;65.09;99222.88;5077843;28;20728;-57
2024/01/20 10:35:13;;;;;;;18.30;6.43;;;;;;;-1.27;64.97;99186.28;5061001;28;20097;-55
2024/01/20 10:37:50;;;;;;;13.63;6.07;;;;;;;-1.29;64.94;99186.25;5061608;28;20482;-55
2024/01/20 10:40:17;;;;;;;17.65;6.60;;;;;;;-0.99;65.27;99222.94;5073114;28;20048;-55
2024/01/20 10:42:46;;;;;;;16.88;5.78;;;;;;;-0.95;65.19;99230.63;5060751;28;20044;-58
2024/01/20 10:45:17;;;;;;;17.23;6.07;;;;;;;-0.89;65.21;99225.53;5060846;28;20122;-57
2024/01/20 10:48:06;;;;;;;18.52;6.78;;;;;;;-0.81;65.30;99224.72;5062092;28;20040;-55
2024/01/20 10:50:34;;;;;;;15.07;6.47;;;;;;;-0.77;65.08;99227.28;5058798;28;20538;-54
2024/01/20 10:53:00;;;;;;;15.23;6.38;;;;;;;-0.77;64.56;99227.28;5023436;28;20105;-56
2024/01/20 10:55:26;;;;;;;15.15;6.80;;;;;;;-0.76;65.13;99230.69;5054111;28;20037;-57
2024/01/20 10:57:52;;;;;;;16.13;7.28;;;;;;;-0.77;64.96;99229.84;5058280;28;20052;-55
2024/01/20 11:00:19;;;;;;;14.60;6.30;;;;;;;-0.74;64.98;99229.00;5060761;28;20131;-56
2024/01/20 11:02:45;;;;;;;14.85;5.80;;;;;;;-0.62;65.06;99229.03;5074027;28;20128;-54
2024/01/20 11:05:37;;;;;;;12.55;6.40;;;;;;;-0.55;64.86;99230.75;5059423;28;20421;-56
2024/01/20 11:08:05;;;;;;;15.07;6.70;;;;;;;-0.50;64.75;99241.84;5068937;28;20424;-56
2024/01/20 11:10:42;;;;;;;14.88;6.25;;;;;;;-0.47;64.92;99246.94;5029143;28;20048;-56
2024/01/20 11:13:10;;;;;;;14.93;6.03;;;;;;;-0.49;64.70;99210.34;5057782;28;20044;-57
2024/01/20 11:15:39;;;;;;;13.55;5.50;;;;;;;-0.20;64.28;99241.91;5073800;28;20059;-52
2024/01/20 11:18:21;;;;;;;15.98;5.60;;;;;;;0.00;64.56;99241.94;5060426;28;20070;-54
2024/01/20 11:20:57;;;;;;;16.88;5.25;;;;;;;0.33;64.04;99235.97;5058908;28;20037;-54
2024/01/20 11:23:24;;;;;;;16.40;6.40;;;;;;;0.81;63.57;99227.34;5062781;28;20516;-56